createdAt,value
2023-04-19T00:01:14.802Z,100414.89
2023-04-19T00:03:43.591Z,100407.89
2023-04-19T00:06:15.244Z,100405.04
2023-04-19T00:08:43.536Z,100407.45
2023-04-19T00:11:12.256Z,100405.33
2023-04-19T00:13:41.586Z,100407.80
2023-04-19T00:16:10.894Z,100406.06
2023-04-19T00:18:40.928Z,100404.67
2023-04-19T00:21:11.467Z,100404.65
2023-04-19T00:23:42.575Z,100404.80
2023-04-19T00:26:16.674Z,100399.39
2023-04-19T00:28:47.280Z,100403.97
2023-04-19T00:31:18.622Z,100400.85
2023-04-19T00:33:48.395Z,100402.98
2023-04-19T00:36:33.811Z,100401.48
2023-04-19T00:39:19.558Z,100400.68
2023-04-19T00:41:48.680Z,100399.20
2023-04-19T00:44:24.004Z,100399.98
2023-04-19T00:47:15.579Z,100392.77
2023-04-19T00:49:47.233Z,100389.74
2023-04-19T00:52:20.323Z,100390.57
2023-04-19T00:55:08.807Z,100386.52
2023-04-19T00:57:54.097Z,100387.75
2023-04-19T01:00:27.450Z,100387.46
2023-04-19T01:03:27.257Z,100386.27
2023-04-19T01:06:07.635Z,100385.87
2023-04-19T01:09:12.959Z,100385.84
2023-04-19T01:12:05.923Z,100383.38
2023-04-19T01:15:35.683Z,100376.17
2023-04-19T01:18:08.033Z,100371.76
2023-04-19T01:20:37.759Z,100372.95
2023-04-19T01:23:14.927Z,100373.83
2023-04-19T01:25:47.422Z,100365.95
2023-04-19T01:28:28.193Z,100363.66
2023-04-19T01:31:09.177Z,100360.36
2023-04-19T01:33:46.026Z,100359.52
2023-04-19T01:36:20.188Z,100362.16
2023-04-19T01:39:19.521Z,100357.95
2023-04-19T01:41:48.578Z,100360.77
2023-04-19T01:44:18.603Z,100360.12
2023-04-19T01:46:52.439Z,100360.18
2023-04-19T01:49:33.436Z,100358.27
2023-04-19T01:52:07.242Z,100359.49
2023-04-19T01:54:40.588Z,100358.59
2023-04-19T01:57:18.253Z,100360.34
2023-04-19T01:59:53.044Z,100359.33
2023-04-19T02:02:31.428Z,100358.46
2023-04-19T02:05:01.682Z,100360.02
2023-04-19T02:07:37.691Z,100363.73
2023-04-19T02:10:42.838Z,100364.11
2023-04-19T02:13:23.142Z,100359.75
2023-04-19T02:16:36.229Z,100357.34
2023-04-19T02:19:06.849Z,100357.17
2023-04-19T02:21:35.746Z,100359.64
2023-04-19T02:24:06.171Z,100362.47
2023-04-19T02:26:35.218Z,100361.60
2023-04-19T02:29:06.360Z,100357.23
2023-04-19T02:31:39.251Z,100359.84
2023-04-19T02:34:48.979Z,100353.87
2023-04-19T02:37:29.496Z,100354.05
2023-04-19T02:40:01.527Z,100352.12
2023-04-19T02:42:30.086Z,100351.08
2023-04-19T02:45:09.646Z,100344.35
2023-04-19T02:48:05.952Z,100344.12
2023-04-19T02:50:54.833Z,100344.62
2023-04-19T02:53:28.534Z,100344.92
2023-04-19T02:56:03.871Z,100344.26
2023-04-19T02:58:36.762Z,100346.02
2023-04-19T03:01:13.150Z,100341.50
2023-04-19T03:03:41.569Z,100344.17
2023-04-19T03:06:18.902Z,100340.16
2023-04-19T03:08:50.339Z,100341.00
2023-04-19T03:11:28.161Z,100342.41
2023-04-19T03:13:57.755Z,100339.27
2023-04-19T03:16:31.650Z,100340.66
2023-04-19T03:19:18.601Z,100341.41
2023-04-19T03:21:49.500Z,100346.33
2023-04-19T03:24:26.760Z,100344.95
2023-04-19T03:27:17.357Z,100345.63
2023-04-19T03:29:53.749Z,100342.47
2023-04-19T03:32:37.641Z,100340.71
2023-04-19T03:35:43.053Z,100344.38
2023-04-19T03:38:12.378Z,100344.92
2023-04-19T03:40:40.509Z,100343.35
2023-04-19T03:43:09.942Z,100339.98
2023-04-19T03:45:39.964Z,100341.19
2023-04-19T03:48:09.591Z,100337.80
2023-04-19T03:50:39.710Z,100337.95
2023-04-19T03:53:11.309Z,100336.34
2023-04-19T03:55:41.778Z,100336.14
2023-04-19T03:58:11.972Z,100334.36
2023-04-19T04:00:40.220Z,100334.10
2023-04-19T04:03:08.667Z,100332.05
2023-04-19T04:05:36.981Z,100331.91
2023-04-19T04:08:05.954Z,100330.88
2023-04-19T04:10:34.161Z,100336.55
2023-04-19T04:13:02.379Z,100337.36
2023-04-19T04:15:30.681Z,100334.69
2023-04-19T04:17:59.221Z,100332.50
2023-04-19T04:20:27.706Z,100335.57
2023-04-19T04:22:55.937Z,100340.14
2023-04-19T04:25:25.345Z,100339.35
2023-04-19T04:27:54.305Z,100340.77
2023-04-19T04:30:22.323Z,100339.79
2023-04-19T04:32:51.823Z,100338.20
2023-04-19T04:35:21.231Z,100341.45
2023-04-19T04:37:50.826Z,100337.42
2023-04-19T04:40:20.869Z,100342.10
2023-04-19T04:42:49.075Z,100343.64
2023-04-19T04:45:18.468Z,100341.23
2023-04-19T04:47:47.952Z,100343.42
2023-04-19T04:50:17.754Z,100344.38
2023-04-19T04:52:46.049Z,100342.85
2023-04-19T04:55:14.424Z,100346.09
2023-04-19T04:57:42.669Z,100344.76
2023-04-19T05:00:12.912Z,100343.56
2023-04-19T05:02:41.561Z,100348.17
2023-04-19T05:05:11.523Z,100342.06
2023-04-19T05:07:41.268Z,100339.96
2023-04-19T05:10:12.492Z,100337.83
2023-04-19T05:12:41.853Z,100341.92
2023-04-19T05:15:11.381Z,100338.40
2023-04-19T05:17:39.568Z,100337.92
2023-04-19T05:20:09.348Z,100341.40
2023-04-19T05:22:38.519Z,100341.46
2023-04-19T05:25:09.399Z,100339.48
2023-04-19T05:27:38.162Z,100341.73
2023-04-19T05:30:08.088Z,100341.50
2023-04-19T05:32:38.259Z,100340.30
2023-04-19T05:35:08.506Z,100343.79
2023-04-19T05:37:37.115Z,100338.79
2023-04-19T05:40:09.488Z,100340.16
2023-04-19T05:42:38.447Z,100339.16
2023-04-19T05:45:08.752Z,100341.00
2023-04-19T05:47:38.583Z,100342.13
2023-04-19T05:50:09.662Z,100345.66
2023-04-19T05:52:38.013Z,100341.13
2023-04-19T05:55:06.907Z,100338.15
2023-04-19T05:57:36.338Z,100335.52
2023-04-19T06:00:05.290Z,100329.02
2023-04-19T06:02:33.970Z,100327.80
2023-04-19T06:05:09.868Z,100332.05
2023-04-19T06:07:43.077Z,100330.11
2023-04-19T06:10:15.488Z,100334.56
2023-04-19T06:12:44.200Z,100330.90
2023-04-19T06:15:12.552Z,100325.71
2023-04-19T06:17:41.876Z,100324.67
2023-04-19T06:20:11.929Z,100319.70
2023-04-19T06:22:45.070Z,100320.31
2023-04-19T06:25:15.178Z,100321.42
2023-04-19T06:27:43.502Z,100317.22
2023-04-19T06:30:12.967Z,100317.27
2023-04-19T06:32:41.593Z,100313.39
2023-04-19T06:35:11.966Z,100315.20
2023-04-19T06:37:40.003Z,100315.53
2023-04-19T06:40:09.607Z,100312.17
2023-04-19T06:42:38.038Z,100314.91
2023-04-19T06:45:17.754Z,100315.02
2023-04-19T06:47:46.616Z,100311.14
2023-04-19T06:50:15.305Z,100312.72
2023-04-19T06:52:43.920Z,100309.26
2023-04-19T06:55:14.055Z,100314.83
2023-04-19T06:57:44.689Z,100310.97
2023-04-19T07:00:18.639Z,100309.52
2023-04-19T07:02:48.430Z,100305.43
2023-04-19T07:05:17.883Z,100305.14
2023-04-19T07:07:46.889Z,100303.21
2023-04-19T07:10:15.291Z,100308.64
2023-04-19T07:12:43.592Z,100308.66
2023-04-19T07:15:12.527Z,100313.80
2023-04-19T07:17:41.314Z,100314.48
2023-04-19T07:20:12.094Z,100314.70
2023-04-19T07:22:42.170Z,100312.80
2023-04-19T07:25:11.573Z,100309.38
2023-04-19T07:27:40.074Z,100317.37
2023-04-19T07:30:09.803Z,100311.78
2023-04-19T07:32:38.121Z,100310.20
2023-04-19T07:35:07.286Z,100307.55
2023-04-19T07:37:35.748Z,100308.65
2023-04-19T07:40:05.118Z,100317.52
2023-04-19T07:42:34.046Z,100320.18
2023-04-19T07:45:03.730Z,100312.95
2023-04-19T07:47:32.878Z,100311.35
2023-04-19T07:50:01.574Z,100319.98
2023-04-19T07:52:30.493Z,100313.94
2023-04-19T07:55:07.722Z,100314.89
2023-04-19T07:57:48.761Z,100319.52
2023-04-19T08:00:21.912Z,100315.60
2023-04-19T08:02:53.320Z,100308.78
2023-04-19T08:05:21.920Z,100304.98
2023-04-19T08:10:05.505Z,100305.02
2023-04-19T08:12:08.150Z,100301.44
2023-04-19T08:14:28.346Z,100298.36
2023-04-19T08:17:22.166Z,100297.48
2023-04-19T08:19:49.212Z,100297.82
2023-04-19T08:22:21.316Z,100304.48
2023-04-19T08:24:52.511Z,100297.65
2023-04-19T08:27:22.701Z,100292.88
2023-04-19T08:29:51.090Z,100298.16
2023-04-19T08:32:20.859Z,100301.52
2023-04-19T08:34:50.098Z,100284.71
2023-04-19T08:37:18.503Z,100288.15
2023-04-19T08:39:47.303Z,100280.05
2023-04-19T08:45:19.039Z,100281.50
2023-04-19T08:47:56.376Z,100270.98
2023-04-19T08:50:33.450Z,100274.30
2023-04-19T08:53:21.009Z,100271.36
2023-04-19T08:56:10.682Z,100269.46
2023-04-19T08:58:57.745Z,100275.37
2023-04-19T09:01:35.962Z,100276.21
2023-04-19T09:04:34.832Z,100272.77
2023-04-19T09:07:05.671Z,100275.86
2023-04-19T09:09:45.646Z,100267.93
2023-04-19T09:12:27.294Z,100271.21
2023-04-19T09:15:01.679Z,100267.05
2023-04-19T09:17:32.260Z,100268.76
2023-04-19T09:20:00.982Z,100262.79
2023-04-19T09:22:29.794Z,100269.70
2023-04-19T09:27:36.880Z,100269.56
2023-04-19T09:30:17.519Z,100263.23
2023-04-19T09:32:54.595Z,100267.77
2023-04-19T09:35:54.276Z,100264.17
2023-04-19T09:38:24.099Z,100262.50
2023-04-19T09:40:55.442Z,100268.43
2023-04-19T09:43:53.104Z,100259.26
2023-04-19T09:46:27.890Z,100258.71
2023-04-19T09:49:00.255Z,100256.63
2023-04-19T09:51:41.440Z,100260.54
2023-04-19T09:54:24.211Z,100254.83
2023-04-19T09:56:57.039Z,100249.89
2023-04-19T09:59:26.941Z,100250.80
2023-04-19T10:01:56.666Z,100252.56
2023-04-19T10:04:44.152Z,100248.34
2023-04-19T10:09:59.931Z,100252.06
2023-04-19T10:15:10.233Z,100246.55
2023-04-19T10:17:59.489Z,100249.44
2023-04-19T10:20:30.746Z,100246.58
2023-04-19T10:22:59.619Z,100241.31
2023-04-19T10:25:30.107Z,100239.04
2023-04-19T10:27:58.477Z,100246.98
2023-04-19T10:30:27.105Z,100240.55
2023-04-19T10:32:57.500Z,100240.06
2023-04-19T10:35:28.982Z,100246.91
2023-04-19T10:38:09.003Z,100237.39
2023-04-19T10:41:00.959Z,100234.44
2023-04-19T10:43:41.163Z,100230.89
2023-04-19T10:46:14.135Z,100231.08
2023-04-19T10:48:55.923Z,100234.17
2023-04-19T10:51:28.879Z,100234.77
2023-04-19T10:54:06.251Z,100231.32
2023-04-19T10:57:04.628Z,100238.46
2023-04-19T10:59:34.182Z,100230.66
2023-04-19T11:02:03.572Z,100228.35
2023-04-19T11:04:49.986Z,100228.41
2023-04-19T11:07:20.758Z,100226.84
2023-04-19T11:10:04.469Z,100228.20
2023-04-19T11:12:37.035Z,100221.77
2023-04-19T11:15:08.897Z,100225.10
2023-04-19T11:17:41.180Z,100219.14
2023-04-19T11:20:11.821Z,100217.92
2023-04-19T11:22:43.562Z,100215.20
2023-04-19T11:25:13.403Z,100214.66
2023-04-19T11:27:45.002Z,100208.98
2023-04-19T11:30:14.354Z,100206.98
2023-04-19T11:32:58.187Z,100205.90
2023-04-19T11:35:32.224Z,100202.91
2023-04-19T11:38:01.694Z,100202.77
2023-04-19T11:40:32.649Z,100200.48
2023-04-19T11:43:03.648Z,100199.34
2023-04-19T11:45:38.587Z,100202.12
2023-04-19T11:48:20.726Z,100198.56
2023-04-19T11:51:00.110Z,100197.69
2023-04-19T11:53:32.153Z,100196.30
2023-04-19T11:56:05.654Z,100187.38
2023-04-19T11:58:37.090Z,100186.75
2023-04-19T12:01:06.517Z,100178.97
2023-04-19T12:03:56.228Z,100180.80
2023-04-19T12:06:28.287Z,100180.92
2023-04-19T12:09:09.004Z,100177.08
2023-04-19T12:11:49.550Z,100177.77
2023-04-19T12:14:19.684Z,100173.89
2023-04-19T12:17:04.106Z,100173.28
2023-04-19T12:19:45.417Z,100167.42
2023-04-19T12:22:15.979Z,100170.24
2023-04-19T12:24:45.648Z,100158.25
2023-04-19T12:27:17.544Z,100156.73
2023-04-19T12:29:48.358Z,100157.06
2023-04-19T12:32:18.854Z,100145.40
2023-04-19T12:34:48.600Z,100144.79
2023-04-19T12:37:17.542Z,100145.37
2023-04-19T12:39:46.268Z,100141.63
2023-04-19T12:42:14.857Z,100137.33
2023-04-19T12:44:45.178Z,100139.38
2023-04-19T12:47:16.315Z,100141.46
2023-04-19T12:49:45.691Z,100140.98
2023-04-19T12:52:13.846Z,100136.09
2023-04-19T12:54:45.728Z,100139.66
2023-04-19T12:57:16.652Z,100138.23
2023-04-19T13:00:04.788Z,100141.97
2023-04-19T13:02:44.152Z,100137.33
2023-04-19T13:05:15.874Z,100137.76
2023-04-19T13:07:50.102Z,100138.70
2023-04-19T13:10:21.284Z,100134.94
2023-04-19T13:12:50.423Z,100134.17
2023-04-19T13:15:20.088Z,100134.42
2023-04-19T13:17:48.222Z,100135.05
2023-04-19T13:20:18.656Z,100135.45
2023-04-19T13:22:50.873Z,100132.27
2023-04-19T13:25:20.380Z,100131.73
2023-04-19T13:27:55.613Z,100133.20
2023-04-19T13:30:26.353Z,100133.21
2023-04-19T13:33:04.778Z,100131.30
2023-04-19T13:35:41.169Z,100133.43
2023-04-19T13:38:09.772Z,100135.67
2023-04-19T13:40:40.018Z,100138.84
2023-04-19T13:43:08.248Z,100137.80
2023-04-19T13:45:37.092Z,100138.89
2023-04-19T13:48:07.222Z,100136.01
2023-04-19T13:50:44.771Z,100131.90
2023-04-19T13:53:15.409Z,100131.77
2023-04-19T13:55:43.886Z,100138.91
2023-04-19T13:58:12.799Z,100147.48
2023-04-19T14:00:43.055Z,100151.30
2023-04-19T14:03:19.870Z,100153.86
2023-04-19T14:05:52.383Z,100156.67
2023-04-19T14:08:59.794Z,100156.01
2023-04-19T14:11:44.317Z,100153.13
2023-04-19T14:14:14.912Z,100150.58
2023-04-19T14:16:52.122Z,100148.45
2023-04-19T14:19:37.306Z,100151.08
2023-04-19T14:22:16.500Z,100148.02
2023-04-19T14:24:56.596Z,100148.31
2023-04-19T14:27:26.778Z,100146.37
2023-04-19T14:30:01.157Z,100139.02
2023-04-19T14:32:51.395Z,100138.99
2023-04-19T14:35:43.752Z,100138.54
2023-04-19T14:38:12.456Z,100138.90
2023-04-19T14:40:42.648Z,100138.16
2023-04-19T14:43:28.635Z,100140.17
2023-04-19T14:45:58.402Z,100140.77
2023-04-19T14:48:28.169Z,100137.46
2023-04-19T14:50:56.626Z,100138.20
2023-04-19T14:53:25.820Z,100140.77
2023-04-19T14:55:54.909Z,100144.85
2023-04-19T14:58:24.321Z,100145.96
2023-04-19T15:00:54.626Z,100148.37
2023-04-19T15:03:22.841Z,100152.77
2023-04-19T15:05:52.751Z,100156.02
2023-04-19T15:08:30.112Z,100162.10
2023-04-19T15:11:00.887Z,100160.21
2023-04-19T15:13:29.848Z,100165.58
2023-04-19T15:16:02.530Z,100169.22
2023-04-19T15:18:32.581Z,100175.84
2023-04-19T15:21:02.553Z,100178.40
2023-04-19T15:23:30.837Z,100182.29
2023-04-19T15:25:59.527Z,100180.80
2023-04-19T15:28:29.526Z,100180.08
2023-04-19T15:30:58.982Z,100177.34
2023-04-19T15:33:35.882Z,100174.94
2023-04-19T15:36:04.188Z,100173.34
2023-04-19T15:38:32.584Z,100167.16
2023-04-19T15:41:01.675Z,100159.74
2023-04-19T15:43:31.177Z,100158.52
2023-04-19T15:46:02.329Z,100155.09
2023-04-19T15:48:31.228Z,100150.81
2023-04-19T15:51:00.830Z,100157.55
2023-04-19T15:53:29.326Z,100158.48
2023-04-19T15:55:57.879Z,100161.22
2023-04-19T15:58:26.399Z,100162.00
2023-04-19T16:00:56.090Z,100169.41
2023-04-19T16:03:29.208Z,100167.49
2023-04-19T16:05:59.785Z,100173.30
2023-04-19T16:08:30.533Z,100174.08
2023-04-19T16:11:00.034Z,100175.90
2023-04-19T16:13:30.112Z,100170.72
2023-04-19T16:16:00.643Z,100164.70
2023-04-19T16:18:28.887Z,100162.17
2023-04-19T16:21:00.004Z,100159.50
2023-04-19T16:23:30.670Z,100158.55
2023-04-19T16:26:02.059Z,100159.46
2023-04-19T16:28:34.754Z,100162.34
2023-04-19T16:31:14.013Z,100162.80
2023-04-19T16:33:42.573Z,100164.52
2023-04-19T16:36:10.792Z,100169.06
2023-04-19T16:38:38.996Z,100165.71
2023-04-19T16:41:08.734Z,100169.64
2023-04-19T16:43:37.048Z,100167.27
2023-04-19T16:46:07.462Z,100165.75
2023-04-19T16:48:35.832Z,100168.85
2023-04-19T16:51:04.325Z,100168.63
2023-04-19T16:53:33.161Z,100169.98
2023-04-19T16:56:03.182Z,100171.21
2023-04-19T16:58:32.605Z,100177.21
2023-04-19T17:01:03.871Z,100183.41
2023-04-19T17:03:32.442Z,100184.79
2023-04-19T17:06:00.915Z,100184.69
2023-04-19T17:08:29.337Z,100186.13
2023-04-19T17:10:57.572Z,100188.60
2023-04-19T17:13:26.471Z,100185.46
2023-04-19T17:15:55.594Z,100184.25
2023-04-19T17:18:24.909Z,100189.95
2023-04-19T17:20:53.239Z,100192.59
2023-04-19T17:23:27.340Z,100201.41
2023-04-19T17:25:58.955Z,100199.33
2023-04-19T17:28:27.775Z,100205.46
2023-04-19T17:30:56.985Z,100209.96
2023-04-19T17:33:26.096Z,100213.11
2023-04-19T17:35:55.399Z,100212.73
2023-04-19T17:38:26.163Z,100218.69
2023-04-19T17:40:55.328Z,100221.90
2023-04-19T17:43:26.752Z,100227.66
2023-04-19T17:45:57.572Z,100234.81
2023-04-19T17:48:26.633Z,100237.22
2023-04-19T17:50:55.605Z,100239.35
2023-04-19T17:53:26.876Z,100243.36
2023-04-19T17:55:57.447Z,100239.23
2023-04-19T17:58:26.248Z,100244.08
2023-04-19T18:00:55.298Z,100243.16
2023-04-19T18:03:25.450Z,100248.76
2023-04-19T18:05:53.748Z,100250.67
2023-04-19T18:08:23.556Z,100254.30
2023-04-19T18:10:52.860Z,100252.42
2023-04-19T18:13:21.974Z,100251.23
2023-04-19T18:15:50.657Z,100249.29
2023-04-19T18:18:19.396Z,100249.27
2023-04-19T18:20:47.621Z,100249.27
2023-04-19T18:23:16.014Z,100252.35
2023-04-19T18:25:44.380Z,100257.02
2023-04-19T18:28:12.744Z,100257.52
2023-04-19T18:30:41.070Z,100262.27
2023-04-19T18:33:09.421Z,100262.51
2023-04-19T18:35:37.832Z,100271.46
2023-04-19T18:38:07.127Z,100273.23
2023-04-19T18:40:36.632Z,100276.80
2023-04-19T18:43:08.639Z,100272.12
2023-04-19T18:45:40.944Z,100274.65
2023-04-19T18:48:11.230Z,100277.77
2023-04-19T18:50:39.611Z,100279.00
2023-04-19T18:53:20.281Z,100277.85
2023-04-19T18:56:18.601Z,100276.97
2023-04-19T18:58:48.961Z,100276.19
2023-04-19T19:01:20.995Z,100279.17
2023-04-19T19:04:10.648Z,100273.42
2023-04-19T19:06:38.575Z,100265.77
2023-04-19T19:09:11.011Z,100265.40
2023-04-19T19:11:55.455Z,100262.76
2023-04-19T19:14:25.874Z,100257.86
2023-04-19T19:16:56.754Z,100260.45
2023-04-19T19:19:26.888Z,100266.48
2023-04-19T19:21:56.093Z,100265.68
2023-04-19T19:24:25.493Z,100267.65
2023-04-19T19:26:54.035Z,100267.13
2023-04-19T19:29:24.769Z,100267.52
2023-04-19T19:31:58.177Z,100269.25
2023-04-19T19:34:30.479Z,100272.86
2023-04-19T19:37:08.748Z,100272.72
2023-04-19T19:39:39.305Z,100278.46
2023-04-19T19:42:07.569Z,100282.38
2023-04-19T19:44:35.965Z,100285.15
2023-04-19T19:47:09.792Z,100286.52
2023-04-19T19:52:11.681Z,100284.98
2023-04-19T19:54:40.099Z,100283.05
2023-04-19T19:58:06.864Z,100284.38
2023-04-19T20:00:13.051Z,100284.94
2023-04-19T20:05:19.850Z,100285.05
2023-04-19T20:08:01.342Z,100282.89
2023-04-19T20:10:31.597Z,100282.73
2023-04-19T20:13:00.970Z,100286.42
2023-04-19T20:15:29.693Z,100290.27
2023-04-19T20:17:58.124Z,100298.01
2023-04-19T20:20:27.343Z,100293.60
2023-04-19T20:22:56.267Z,100294.70
2023-04-19T20:25:25.621Z,100297.10
2023-04-19T20:27:55.326Z,100296.37
2023-04-19T20:30:23.766Z,100296.60
2023-04-19T20:32:53.027Z,100298.84
2023-04-19T20:35:21.861Z,100296.88
2023-04-19T20:37:50.409Z,100293.25
2023-04-19T20:40:18.672Z,100298.98
2023-04-19T20:42:47.026Z,100305.21
2023-04-19T20:45:16.555Z,100300.33
2023-04-19T20:47:47.331Z,100296.81
2023-04-19T20:50:15.611Z,100296.87
2023-04-19T20:52:44.096Z,100289.66
2023-04-19T20:55:13.064Z,100290.84
2023-04-19T21:08:45.634Z,100293.27
2023-04-19T21:11:13.925Z,100289.97
2023-04-19T21:13:41.952Z,100292.71
2023-04-19T21:16:11.349Z,100286.91
2023-04-19T21:18:41.070Z,100295.05
2023-04-19T21:21:09.417Z,100297.48
2023-04-19T21:23:38.584Z,100294.47
2023-04-19T21:26:07.753Z,100298.82
2023-04-19T21:28:36.049Z,100297.60
2023-04-19T21:31:04.428Z,100294.57
2023-04-19T21:33:33.425Z,100298.11
2023-04-19T21:36:01.698Z,100293.66
2023-04-19T21:38:30.055Z,100292.23
2023-04-19T21:41:04.878Z,100288.98
2023-04-19T21:43:32.959Z,100287.17
2023-04-19T21:46:04.246Z,100283.66
2023-04-19T21:48:32.362Z,100284.80
2023-04-19T21:51:01.193Z,100282.38
2023-04-19T21:53:29.696Z,100283.05
2023-04-19T21:55:58.188Z,100283.07
2023-04-19T21:58:27.302Z,100281.38
2023-04-19T22:00:56.736Z,100278.98
2023-04-19T22:03:26.454Z,100278.59
2023-04-19T22:05:55.545Z,100278.05
2023-04-19T22:08:24.225Z,100279.82
2023-04-19T22:10:53.032Z,100273.05
2023-04-19T22:13:21.695Z,100276.52
2023-04-19T22:15:50.168Z,100272.70
2023-04-19T22:18:18.354Z,100271.89
2023-04-19T22:20:49.490Z,100270.34
2023-04-19T22:23:17.850Z,100271.23
2023-04-19T22:25:46.045Z,100273.39
2023-04-19T22:28:14.319Z,100277.34
2023-04-19T22:30:42.520Z,100278.20
2023-04-19T22:33:12.500Z,100273.44
2023-04-19T22:35:41.140Z,100273.55
2023-04-19T22:38:09.689Z,100268.86
2023-04-19T22:40:38.154Z,100266.58
2023-04-19T22:43:06.246Z,100268.55
2023-04-19T22:45:35.421Z,100265.30
2023-04-19T22:48:03.879Z,100262.10
2023-04-19T22:50:34.201Z,100255.40
2023-04-19T22:53:02.721Z,100252.05
2023-04-19T22:55:31.568Z,100243.30
2023-04-19T22:57:59.890Z,100241.14
2023-04-19T23:00:28.895Z,100239.23
2023-04-19T23:02:58.918Z,100245.58
2023-04-19T23:05:28.955Z,100245.60
2023-04-19T23:07:59.203Z,100251.38
2023-04-19T23:10:28.910Z,100252.52
2023-04-19T23:13:01.178Z,100261.13
2023-04-19T23:15:30.912Z,100261.29
2023-04-19T23:18:01.756Z,100265.26
2023-04-19T23:20:31.548Z,100264.23
2023-04-19T23:23:01.673Z,100269.04
2023-04-19T23:25:30.756Z,100265.64
2023-04-19T23:27:59.904Z,100260.98
2023-04-19T23:30:31.515Z,100256.48
2023-04-19T23:33:00.978Z,100254.38
2023-04-19T23:35:30.916Z,100254.33
2023-04-19T23:38:00.236Z,100249.23
2023-04-19T23:40:29.640Z,100246.91
2023-04-19T23:42:59.211Z,100246.38
2023-04-19T23:45:27.727Z,100244.42
2023-04-19T23:47:56.861Z,100238.98
2023-04-19T23:50:25.838Z,100236.13
2023-04-19T23:52:55.073Z,100237.04
2023-04-19T23:55:23.979Z,100235.23
2023-04-19T23:57:52.598Z,100230.29
